Nebr City, Nebraska
Current Conditions -  °F | °C
As of 11:35 PM on Saturday 22 Nov 2014 (Local Time) from KAFK Reporting Station
Overcast Overcast  
Wind Chill: 54°   Ceiling: 900
Heat Index: 54°   Visibility: 10mi
Dew Point: 53°   Wind: 15mph
Humidity: 99%   Direction: 190°S
Pressure: 29.6"   Gusts: NA
Location:  40.6534°N, 95.8738°W
Report Text: KAFK 230535Z AUTO 19013KT 10SM OVC009 12/12 A2960 RMK AO2 T01200118
Loading
Personal Weather Stations






























Interactive Weather Map New forecast layout! Learn more

10-Day Weather Forecast

Advertisements
Track Severe Weather on mobile